createdAt,value
2018-06-16T00:02:20.001Z,2.73
2018-06-16T00:04:48.061Z,2.33
2018-06-16T00:07:16.158Z,2.27
2018-06-16T00:09:44.201Z,3.37
2018-06-16T00:12:12.292Z,2.97
2018-06-16T00:14:40.844Z,3.30
2018-06-16T00:17:08.922Z,2.63
2018-06-16T00:19:37.230Z,2.80
2018-06-16T00:22:05.493Z,2.47
2018-06-16T00:24:33.344Z,2.83
2018-06-16T00:27:01.278Z,2.70
2018-06-16T00:29:29.333Z,2.87
2018-06-16T00:31:57.391Z,2.17
2018-06-16T00:34:25.492Z,2.80
2018-06-16T00:36:53.545Z,2.53
2018-06-16T00:39:21.643Z,2.70
2018-06-16T00:41:49.697Z,3.37
2018-06-16T00:44:17.769Z,2.27
2018-06-16T00:46:45.849Z,2.90
2018-06-16T00:49:13.926Z,2.93
2018-06-16T00:51:41.999Z,2.80
2018-06-16T00:54:10.053Z,2.97
2018-06-16T00:56:38.131Z,2.13
2018-06-16T00:59:07.496Z,2.20
2018-06-16T01:01:35.565Z,2.37
2018-06-16T01:04:03.641Z,2.30
2018-06-16T01:06:31.689Z,2.13
2018-06-16T01:08:59.741Z,3.10
2018-06-16T01:11:27.798Z,2.03
2018-06-16T01:13:55.889Z,2.60
2018-06-16T01:16:23.965Z,2.70
2018-06-16T01:18:52.043Z,2.90
2018-06-16T01:21:20.049Z,2.03
2018-06-16T01:23:48.103Z,2.40
2018-06-16T01:26:16.166Z,1.90
2018-06-16T01:28:44.236Z,2.53
2018-06-16T01:31:12.280Z,2.43
2018-06-16T01:33:40.342Z,2.37
2018-06-16T01:36:08.397Z,2.77
2018-06-16T01:38:36.605Z,2.13
2018-06-16T01:41:05.331Z,2.57
2018-06-16T01:43:33.310Z,2.90
2018-06-16T01:46:01.382Z,3.17
2018-06-16T01:48:29.458Z,2.90
2018-06-16T01:50:57.546Z,3.10
2018-06-16T01:53:25.677Z,2.60
2018-06-16T01:55:53.739Z,2.50
2018-06-16T01:58:21.790Z,3.00
2018-06-16T02:00:49.869Z,2.90
2018-06-16T02:03:17.976Z,2.90
2018-06-16T02:05:46.018Z,2.53
2018-06-16T02:08:14.082Z,2.20
2018-06-16T02:10:42.159Z,2.50
2018-06-16T02:13:10.209Z,2.40
2018-06-16T02:15:38.301Z,2.40
2018-06-16T02:18:06.356Z,2.57
2018-06-16T02:20:34.401Z,2.73
2018-06-16T02:23:02.446Z,2.50
2018-06-16T02:25:30.508Z,2.37
2018-06-16T02:27:58.536Z,2.60
2018-06-16T02:30:26.589Z,2.80
2018-06-16T02:32:54.726Z,2.70
2018-06-16T02:35:23.011Z,3.73
2018-06-16T02:37:51.064Z,2.20
2018-06-16T02:40:19.134Z,2.90
2018-06-16T02:42:47.180Z,2.63
2018-06-16T02:45:15.409Z,3.00
2018-06-16T02:47:43.474Z,3.03
2018-06-16T02:50:11.583Z,2.87
2018-06-16T02:52:39.605Z,3.03
2018-06-16T02:55:07.678Z,2.43
2018-06-16T02:57:35.754Z,2.73
2018-06-16T03:00:03.810Z,2.77
2018-06-16T03:02:31.929Z,2.70
2018-06-16T03:04:59.994Z,3.03
2018-06-16T03:07:28.081Z,2.23
2018-06-16T03:09:55.953Z,2.80
2018-06-16T03:12:23.998Z,2.90
2018-06-16T03:14:51.933Z,3.03
2018-06-16T03:17:19.987Z,2.93
2018-06-16T03:19:48.022Z,2.57
2018-06-16T03:22:16.066Z,2.63
2018-06-16T03:24:44.385Z,2.53
2018-06-16T03:27:12.433Z,2.80
2018-06-16T03:29:40.361Z,2.93
2018-06-16T03:32:08.421Z,2.70
2018-06-16T03:34:36.493Z,2.80
2018-06-16T03:37:04.897Z,3.30
2018-06-16T03:39:32.938Z,2.70
2018-06-16T03:42:01.010Z,2.73
2018-06-16T03:44:29.073Z,2.43
2018-06-16T03:46:57.145Z,3.13
2018-06-16T03:49:25.264Z,2.70
2018-06-16T03:51:53.350Z,3.23
2018-06-16T03:54:21.420Z,3.17
2018-06-16T03:56:49.473Z,2.77
2018-06-16T03:59:17.538Z,2.97
2018-06-16T04:01:45.626Z,3.60
2018-06-16T04:04:13.830Z,3.60
2018-06-16T04:06:41.896Z,3.20
2018-06-16T04:09:10.958Z,3.00
2018-06-16T04:11:39.312Z,3.10
2018-06-16T04:14:07.604Z,2.80
2018-06-16T04:16:35.691Z,3.10
2018-06-16T04:19:03.617Z,3.17
2018-06-16T04:21:31.720Z,3.23
2018-06-16T04:23:59.857Z,3.10
2018-06-16T04:26:27.899Z,3.33
2018-06-16T04:28:55.961Z,4.30
2018-06-16T04:31:25.129Z,3.20
2018-06-16T04:33:53.190Z,3.17
2018-06-16T04:36:21.310Z,3.50
2018-06-16T04:38:49.401Z,3.73
2018-06-16T04:41:17.589Z,3.63
2018-06-16T04:43:45.997Z,3.87
2018-06-16T04:46:14.058Z,3.37
2018-06-16T04:48:43.017Z,3.03
2018-06-16T04:51:11.117Z,4.30
2018-06-16T04:53:39.157Z,3.20
2018-06-16T04:56:07.208Z,2.63
2018-06-16T04:58:35.382Z,3.70
2018-06-16T05:01:03.434Z,3.87
2018-06-16T05:03:31.316Z,3.90
2018-06-16T05:05:59.390Z,3.60
2018-06-16T05:08:27.469Z,3.83
2018-06-16T05:10:55.524Z,3.67
2018-06-16T05:13:23.594Z,3.53
2018-06-16T05:15:51.645Z,3.97
2018-06-16T05:18:19.737Z,3.70
2018-06-16T05:20:47.814Z,4.30
2018-06-16T05:23:15.891Z,4.13
2018-06-16T05:25:44.010Z,3.90
2018-06-16T05:28:12.013Z,4.00
2018-06-16T05:30:40.074Z,4.50
2018-06-16T05:33:08.130Z,3.73
2018-06-16T05:35:36.183Z,4.40
2018-06-16T05:38:04.231Z,4.13
2018-06-16T05:40:32.294Z,4.87
2018-06-16T05:43:00.421Z,4.43
2018-06-16T05:45:28.486Z,4.53
2018-06-16T05:47:56.549Z,6.90
2018-06-16T05:50:25.190Z,5.47
2018-06-16T05:52:53.266Z,5.13
2018-06-16T05:55:21.482Z,5.00
2018-06-16T05:57:49.550Z,4.87
2018-06-16T06:00:17.621Z,4.93
2018-06-16T06:02:45.716Z,5.50
2018-06-16T06:05:13.778Z,4.60
2018-06-16T06:07:41.842Z,5.87
2018-06-16T06:10:09.986Z,5.27
2018-06-16T06:12:38.069Z,5.83
2018-06-16T06:15:06.155Z,5.37
2018-06-16T06:17:34.200Z,6.70
2018-06-16T06:20:02.290Z,6.00
2018-06-16T06:22:30.349Z,5.70
2018-06-16T06:24:58.417Z,6.10
2018-06-16T06:27:27.007Z,6.53
2018-06-16T06:29:55.166Z,6.50
2018-06-16T06:32:23.221Z,6.53
2018-06-16T06:34:51.302Z,7.00
2018-06-16T06:37:19.374Z,7.17
2018-06-16T06:39:47.417Z,6.90
2018-06-16T06:42:15.481Z,6.47
2018-06-16T06:44:43.533Z,7.10
2018-06-16T06:47:11.577Z,7.60
2018-06-16T06:49:39.628Z,7.33
2018-06-16T06:52:07.698Z,8.73
2018-06-16T06:54:35.755Z,12.50
2018-06-16T06:57:03.789Z,8.43
2018-06-16T06:59:31.845Z,9.33
2018-06-16T07:01:59.906Z,10.03
2018-06-16T07:04:27.970Z,11.90
2018-06-16T07:06:56.027Z,8.80
2018-06-16T07:09:24.093Z,8.90
2018-06-16T07:11:52.148Z,7.70
2018-06-16T07:14:20.245Z,9.60
2018-06-16T07:16:48.299Z,9.00
2018-06-16T07:19:16.372Z,8.00
2018-06-16T07:21:44.417Z,7.73
2018-06-16T07:24:12.693Z,7.90
2018-06-16T07:26:40.757Z,15.93
2018-06-16T07:29:08.831Z,7.07
2018-06-16T07:31:36.885Z,8.37
2018-06-16T07:34:04.989Z,10.43
2018-06-16T07:36:33.088Z,7.20
2018-06-16T07:39:01.182Z,7.00
2018-06-16T07:41:29.355Z,7.83
2018-06-16T07:43:57.411Z,7.73
2018-06-16T07:46:25.477Z,7.57
2018-06-16T07:48:53.639Z,7.40
2018-06-16T07:51:21.630Z,7.10
2018-06-16T07:53:49.687Z,6.87
2018-06-16T07:56:17.750Z,7.90
2018-06-16T07:58:45.818Z,9.13
2018-06-16T08:01:13.903Z,41.73
2018-06-16T08:03:41.889Z,10.80
2018-06-16T08:06:09.852Z,9.83
2018-06-16T08:08:37.929Z,10.10
2018-06-16T08:11:06.028Z,8.80
2018-06-16T08:13:34.353Z,13.07
2018-06-16T08:16:02.413Z,10.43
2018-06-16T08:18:30.641Z,7.60
2018-06-16T08:20:58.796Z,9.73
2018-06-16T08:23:26.868Z,9.87
2018-06-16T08:25:54.934Z,7.20
2018-06-16T08:28:23.089Z,7.43
2018-06-16T08:30:51.200Z,9.70
2018-06-16T08:33:19.254Z,12.40
2018-06-16T08:35:47.321Z,7.77
2018-06-16T08:38:15.394Z,9.20
2018-06-16T08:40:43.482Z,12.73
2018-06-16T08:43:11.579Z,8.40
2018-06-16T08:45:39.480Z,8.30
2018-06-16T08:48:07.577Z,9.80
2018-06-16T08:50:35.651Z,8.53
2018-06-16T08:53:03.726Z,9.40
2018-06-16T08:55:31.851Z,12.87
2018-06-16T08:57:59.834Z,10.17
2018-06-16T09:00:27.937Z,8.40
2018-06-16T09:02:56.001Z,14.13
2018-06-16T09:05:24.234Z,8.60
2018-06-16T09:07:53.171Z,7.73
2018-06-16T09:10:21.306Z,7.70
2018-06-16T09:12:49.444Z,9.77
2018-06-16T09:15:17.531Z,7.77
2018-06-16T09:17:45.602Z,9.13
2018-06-16T09:20:13.704Z,9.60
2018-06-16T09:22:41.785Z,7.37
2018-06-16T09:25:09.903Z,8.43
2018-06-16T09:27:37.961Z,8.63
2018-06-16T09:30:06.574Z,10.53
2018-06-16T09:32:34.654Z,6.60
2018-06-16T09:35:02.710Z,6.97
2018-06-16T09:37:30.767Z,7.90
2018-06-16T09:39:58.853Z,6.77
2018-06-16T09:42:27.000Z,8.07
2018-06-16T09:44:55.126Z,7.60
2018-06-16T09:47:23.203Z,6.50
2018-06-16T09:49:51.272Z,12.60
2018-06-16T09:52:19.353Z,6.17
2018-06-16T09:54:48.040Z,5.80
2018-06-16T09:57:16.085Z,6.20
2018-06-16T09:59:45.162Z,5.70
2018-06-16T10:02:13.243Z,5.37
2018-06-16T10:04:41.294Z,5.27
2018-06-16T10:07:09.509Z,5.60
2018-06-16T10:09:37.566Z,6.73
2018-06-16T10:12:05.641Z,5.30
2018-06-16T10:14:33.693Z,5.60
2018-06-16T10:17:01.926Z,5.43
2018-06-16T10:19:29.991Z,5.57
2018-06-16T10:21:58.194Z,5.07
2018-06-16T10:24:27.081Z,5.30
2018-06-16T10:26:56.397Z,5.30
2018-06-16T10:29:24.532Z,5.40
2018-06-16T10:31:52.589Z,5.20
2018-06-16T10:34:20.723Z,4.90
2018-06-16T10:36:49.095Z,5.37
2018-06-16T10:39:17.125Z,5.33
2018-06-16T10:41:45.229Z,6.70
2018-06-16T10:44:13.308Z,5.63
2018-06-16T10:46:41.582Z,5.73
2018-06-16T10:49:09.637Z,5.30
2018-06-16T10:51:37.722Z,5.83
2018-06-16T10:54:06.861Z,5.43
2018-06-16T10:56:34.909Z,5.80
2018-06-16T10:59:03.125Z,5.40
2018-06-16T11:01:31.181Z,6.20
2018-06-16T11:03:59.220Z,5.80
2018-06-16T11:06:27.285Z,5.30
2018-06-16T11:08:55.331Z,7.00
2018-06-16T11:11:23.445Z,5.67
2018-06-16T11:13:51.545Z,6.60
2018-06-16T11:16:19.870Z,6.83
2018-06-16T11:18:47.948Z,6.97
2018-06-16T11:21:15.997Z,7.13
2018-06-16T11:23:44.096Z,7.10
2018-06-16T11:26:12.189Z,7.77
2018-06-16T11:28:40.245Z,8.50
2018-06-16T11:31:08.315Z,7.87
2018-06-16T11:33:36.422Z,7.67
2018-06-16T11:36:04.529Z,9.20
2018-06-16T11:38:32.444Z,8.90
2018-06-16T11:41:00.522Z,8.07
2018-06-16T11:43:28.598Z,8.77
2018-06-16T11:45:56.654Z,8.90
2018-06-16T11:48:24.825Z,8.43
2018-06-16T11:50:52.889Z,10.17
2018-06-16T11:53:20.945Z,9.27
2018-06-16T11:55:49.033Z,10.37
2018-06-16T11:58:17.145Z,10.63
2018-06-16T12:00:45.216Z,10.37
2018-06-16T12:03:13.320Z,9.70
2018-06-16T12:05:41.378Z,13.77
2018-06-16T12:08:09.429Z,16.27
2018-06-16T12:10:37.494Z,28.23
2018-06-16T12:13:05.582Z,12.27
2018-06-16T12:15:33.632Z,17.70
2018-06-16T12:18:01.680Z,32.43
2018-06-16T12:20:29.762Z,12.80
2018-06-16T12:22:57.801Z,15.63
2018-06-16T12:25:25.708Z,9.93
2018-06-16T12:27:53.628Z,18.03
2018-06-16T12:30:21.735Z,11.63
2018-06-16T12:32:49.803Z,14.73
2018-06-16T12:35:17.853Z,26.70
2018-06-16T12:37:46.045Z,11.13
2018-06-16T12:40:14.173Z,5.07
2018-06-16T12:42:42.234Z,5.40
2018-06-16T12:45:10.321Z,6.07
2018-06-16T12:47:38.388Z,6.97
2018-06-16T12:50:07.211Z,6.40
2018-06-16T12:52:35.313Z,6.50
2018-06-16T12:55:03.405Z,6.80
2018-06-16T12:57:31.542Z,5.87
2018-06-16T12:59:59.541Z,5.17
2018-06-16T13:02:27.599Z,11.40
2018-06-16T13:04:55.636Z,6.17
2018-06-16T13:07:23.713Z,5.90
2018-06-16T13:09:51.785Z,5.30
2018-06-16T13:12:19.824Z,5.60
2018-06-16T13:14:47.885Z,6.13
2018-06-16T13:17:15.953Z,6.37
2018-06-16T13:19:44.038Z,6.10
2018-06-16T13:22:12.086Z,5.90
2018-06-16T13:24:40.150Z,7.47
2018-06-16T13:27:08.214Z,6.83
2018-06-16T13:29:36.287Z,8.80
2018-06-16T13:32:04.344Z,6.90
2018-06-16T13:34:32.209Z,6.30
2018-06-16T13:37:00.258Z,7.40
2018-06-16T13:39:28.318Z,8.20
2018-06-16T13:41:56.366Z,6.70
2018-06-16T13:44:24.413Z,8.20
2018-06-16T13:46:52.458Z,8.03
2018-06-16T13:49:21.371Z,6.77
2018-06-16T13:51:49.430Z,7.70
2018-06-16T13:54:17.496Z,6.90
2018-06-16T13:56:46.256Z,7.10
2018-06-16T13:59:14.225Z,6.60
2018-06-16T14:01:42.273Z,7.80
2018-06-16T14:04:10.263Z,6.90
2018-06-16T14:06:38.311Z,8.07
2018-06-16T14:09:07.477Z,7.57
2018-06-16T14:11:35.738Z,6.63
2018-06-16T14:14:03.962Z,7.27
2018-06-16T14:16:32.028Z,6.43
2018-06-16T14:19:00.198Z,6.60
2018-06-16T14:21:28.270Z,6.20
2018-06-16T14:23:56.351Z,6.20
2018-06-16T14:26:24.421Z,6.10
2018-06-16T14:28:52.511Z,6.20
2018-06-16T14:31:20.650Z,5.23
2018-06-16T14:33:48.777Z,4.57
2018-06-16T14:36:16.844Z,4.27
2018-06-16T14:38:44.724Z,3.57
2018-06-16T14:41:12.845Z,3.53
2018-06-16T14:43:40.889Z,3.47
2018-06-16T14:46:08.943Z,3.13
2018-06-16T14:48:37.010Z,3.13
2018-06-16T14:51:05.239Z,3.30
2018-06-16T14:53:33.286Z,3.80
2018-06-16T14:56:01.423Z,3.20
2018-06-16T14:58:29.415Z,4.27
2018-06-16T15:00:58.158Z,3.63
2018-06-16T15:03:26.834Z,4.20
2018-06-16T15:05:54.785Z,3.87
2018-06-16T15:08:22.826Z,4.27
2018-06-16T15:10:51.799Z,3.80
2018-06-16T15:13:19.941Z,3.63
2018-06-16T15:15:48.011Z,4.20
2018-06-16T15:18:16.073Z,4.20
2018-06-16T15:20:44.105Z,3.27
2018-06-16T15:23:12.174Z,3.73
2018-06-16T15:25:40.261Z,3.67
2018-06-16T15:28:08.281Z,4.27
2018-06-16T15:30:36.525Z,3.80
2018-06-16T15:33:04.737Z,4.17
2018-06-16T15:35:33.069Z,4.60
2018-06-16T15:38:01.115Z,4.40
2018-06-16T15:40:29.218Z,3.93
2018-06-16T15:42:57.292Z,3.57
2018-06-16T15:45:25.341Z,3.60
2018-06-16T15:47:53.388Z,4.07
2018-06-16T15:50:21.434Z,4.50
2018-06-16T15:52:50.371Z,4.50
2018-06-16T15:55:18.454Z,4.50
2018-06-16T15:57:47.166Z,4.93
2018-06-16T16:00:15.106Z,5.60
2018-06-16T16:02:43.172Z,4.97
2018-06-16T16:05:11.234Z,4.93
2018-06-16T16:07:39.288Z,5.03
2018-06-16T16:10:07.349Z,4.87
2018-06-16T16:12:35.402Z,5.37
2018-06-16T16:15:03.654Z,6.37
2018-06-16T16:17:31.691Z,5.30
2018-06-16T16:19:59.798Z,4.77
2018-06-16T16:22:27.809Z,4.50
2018-06-16T16:24:55.886Z,4.63
2018-06-16T16:27:23.954Z,4.00
2018-06-16T16:29:52.066Z,4.63
2018-06-16T16:32:20.158Z,4.20
2018-06-16T16:34:48.008Z,4.20
2018-06-16T16:37:16.080Z,3.67
2018-06-16T16:39:44.130Z,3.83
2018-06-16T16:42:12.201Z,3.70
2018-06-16T16:44:40.299Z,5.20
2018-06-16T16:47:08.335Z,3.87
2018-06-16T16:49:36.413Z,3.37
2018-06-16T16:52:04.613Z,3.90
2018-06-16T16:54:32.705Z,3.93
2018-06-16T16:57:00.851Z,3.10
2018-06-16T16:59:28.919Z,3.90
2018-06-16T17:01:56.969Z,4.20
2018-06-16T17:04:25.061Z,3.70
2018-06-16T17:06:53.357Z,3.37
2018-06-16T17:09:21.437Z,3.60
2018-06-16T17:11:49.513Z,4.10
2018-06-16T17:14:17.594Z,4.47
2018-06-16T17:16:45.718Z,3.13
2018-06-16T17:19:13.883Z,3.27
2018-06-16T17:21:41.897Z,4.10
2018-06-16T17:24:09.985Z,2.70
2018-06-16T17:26:38.644Z,2.57
2018-06-16T17:29:06.568Z,2.80
2018-06-16T17:31:34.652Z,3.20
2018-06-16T17:34:02.729Z,3.20
2018-06-16T17:36:30.787Z,2.97
2018-06-16T17:38:58.836Z,2.57
2018-06-16T17:41:26.922Z,2.20
2018-06-16T17:43:54.971Z,3.43
2018-06-16T17:46:23.043Z,2.70
2018-06-16T17:48:51.129Z,2.80
2018-06-16T17:51:19.244Z,3.30
2018-06-16T17:53:47.311Z,3.20
2018-06-16T17:56:15.388Z,3.30
2018-06-16T17:58:43.830Z,5.77
2018-06-16T18:01:11.921Z,7.40
2018-06-16T18:03:39.968Z,6.53
2018-06-16T18:06:08.110Z,7.37
2018-06-16T18:08:36.380Z,9.93
2018-06-16T18:11:04.509Z,10.70
2018-06-16T18:13:32.681Z,11.13
2018-06-16T18:16:00.774Z,12.23
2018-06-16T18:18:28.825Z,12.33
2018-06-16T18:20:56.909Z,11.00
2018-06-16T18:23:24.988Z,11.17
2018-06-16T18:25:53.070Z,11.47
2018-06-16T18:28:21.117Z,12.80
2018-06-16T18:30:49.185Z,13.20
2018-06-16T18:33:17.242Z,13.03
2018-06-16T18:35:45.305Z,13.60
2018-06-16T18:38:13.366Z,11.80
2018-06-16T18:40:41.428Z,12.40
2018-06-16T18:43:09.490Z,12.40
2018-06-16T18:45:37.536Z,12.70
2018-06-16T18:48:05.758Z,12.10
2018-06-16T18:50:33.825Z,12.80
2018-06-16T18:53:02.301Z,14.67
2018-06-16T18:55:30.365Z,14.33
2018-06-16T18:57:58.442Z,13.53
2018-06-16T19:00:26.503Z,14.60
2018-06-16T19:02:54.593Z,14.50
2018-06-16T19:05:22.664Z,14.83
2018-06-16T19:07:50.965Z,15.80
2018-06-16T19:10:19.021Z,13.50
2018-06-16T19:12:47.129Z,14.07
2018-06-16T19:15:15.195Z,12.73
2018-06-16T19:17:43.291Z,15.10
2018-06-16T19:20:11.361Z,13.93
2018-06-16T19:22:39.469Z,14.03
2018-06-16T19:25:07.542Z,14.60
2018-06-16T19:27:35.586Z,12.80
2018-06-16T19:30:03.759Z,13.80
2018-06-16T19:32:32.009Z,21.23
2018-06-16T19:35:00.070Z,16.47
2018-06-16T19:37:28.145Z,14.30
2018-06-16T19:39:56.222Z,13.97
2018-06-16T19:42:24.306Z,14.87
2018-06-16T19:44:52.374Z,15.43
2018-06-16T19:47:20.458Z,15.10
2018-06-16T19:49:48.533Z,14.97
2018-06-16T19:52:16.741Z,12.23
2018-06-16T19:54:45.480Z,22.67
2018-06-16T19:57:13.553Z,14.90
2018-06-16T19:59:41.681Z,13.80
2018-06-16T20:02:10.779Z,15.50
2018-06-16T20:04:38.803Z,13.63
2018-06-16T20:07:06.925Z,13.33
2018-06-16T20:09:34.928Z,13.27
2018-06-16T20:12:02.962Z,12.63
2018-06-16T20:14:31.061Z,13.83
2018-06-16T20:16:59.116Z,13.90
2018-06-16T20:19:27.218Z,12.30
2018-06-16T20:21:55.570Z,11.37
2018-06-16T20:24:23.630Z,13.00
2018-06-16T20:26:51.689Z,13.60
2018-06-16T20:29:19.768Z,12.37
2018-06-16T20:31:47.837Z,12.93
2018-06-16T20:34:15.962Z,12.77
2018-06-16T20:36:43.801Z,13.90
2018-06-16T20:39:12.066Z,15.63
2018-06-16T20:41:40.129Z,14.27
2018-06-16T20:44:08.231Z,11.77
2018-06-16T20:46:36.294Z,11.80
2018-06-16T20:49:04.412Z,12.50
2018-06-16T20:51:32.470Z,14.17
2018-06-16T20:54:00.537Z,13.70
2018-06-16T20:56:28.617Z,13.70
2018-06-16T20:58:56.706Z,13.43
2018-06-16T21:01:24.750Z,14.50
2018-06-16T21:03:52.990Z,57.23
2018-06-16T21:06:21.041Z,39.80
2018-06-16T21:08:49.098Z,17.10
2018-06-16T21:11:17.294Z,14.63
2018-06-16T21:13:45.345Z,15.10
2018-06-16T21:16:13.561Z,15.03
2018-06-16T21:18:41.638Z,14.63
2018-06-16T21:21:09.717Z,14.13
2018-06-16T21:23:37.875Z,13.37
2018-06-16T21:26:05.973Z,14.97
2018-06-16T21:28:34.090Z,14.43
2018-06-16T21:31:02.130Z,14.07
2018-06-16T21:33:30.197Z,16.73
2018-06-16T21:35:58.297Z,14.50
2018-06-16T21:38:26.355Z,15.53
2018-06-16T21:40:54.503Z,14.83
2018-06-16T21:43:22.628Z,14.93
2018-06-16T21:45:50.674Z,15.20
2018-06-16T21:48:18.795Z,15.33
2018-06-16T21:50:46.797Z,15.33
2018-06-16T21:53:14.889Z,15.43
2018-06-16T21:55:43.005Z,15.40
2018-06-16T21:58:11.072Z,16.00
2018-06-16T22:00:39.222Z,14.93
2018-06-16T22:03:07.476Z,15.23
2018-06-16T22:05:35.537Z,14.30
2018-06-16T22:08:09.131Z,16.60
2018-06-16T22:10:37.450Z,15.00
2018-06-16T22:13:05.514Z,16.80
2018-06-16T22:15:33.615Z,16.87
2018-06-16T22:18:01.659Z,19.10
2018-06-16T22:20:29.739Z,19.23
2018-06-16T22:22:57.611Z,19.30
2018-06-16T22:25:25.833Z,19.13
2018-06-16T22:27:53.942Z,17.77
2018-06-16T22:30:22.106Z,19.23
2018-06-16T22:32:49.957Z,17.70
2018-06-16T22:35:18.014Z,20.70
2018-06-16T22:37:46.077Z,17.57
2018-06-16T22:40:14.216Z,17.57
2018-06-16T22:42:42.296Z,18.00
2018-06-16T22:45:10.506Z,18.93
2018-06-16T22:47:38.559Z,19.17
2018-06-16T22:50:07.288Z,21.43
2018-06-16T22:52:35.314Z,19.50
2018-06-16T22:55:03.372Z,20.90
2018-06-16T22:57:31.463Z,20.40
2018-06-16T22:59:59.499Z,22.27
2018-06-16T23:02:27.598Z,21.53
2018-06-16T23:04:55.699Z,23.40
2018-06-16T23:07:23.806Z,24.57
2018-06-16T23:09:51.824Z,25.93
2018-06-16T23:12:19.898Z,24.87
2018-06-16T23:14:47.958Z,27.70
2018-06-16T23:17:16.014Z,28.63
2018-06-16T23:19:44.082Z,26.60
2018-06-16T23:22:12.145Z,28.57
2018-06-16T23:24:40.230Z,28.17
2018-06-16T23:27:08.333Z,31.37
2018-06-16T23:29:36.389Z,30.03
2018-06-16T23:32:04.923Z,29.20
2018-06-16T23:34:33.003Z,29.63
2018-06-16T23:37:01.042Z,29.03
2018-06-16T23:39:29.147Z,30.57
2018-06-16T23:41:57.215Z,32.97
2018-06-16T23:44:25.290Z,29.77
2018-06-16T23:46:53.348Z,31.00
2018-06-16T23:49:21.405Z,34.30
2018-06-16T23:51:49.465Z,32.93
2018-06-16T23:54:17.521Z,32.40
2018-06-16T23:56:45.577Z,33.40
2018-06-16T23:59:13.623Z,33.47
